createdAt,value
2022-08-08T00:01:06.519Z,4.82
2022-08-08T00:03:48.103Z,5.40
2022-08-08T00:06:28.644Z,7.40
2022-08-08T00:09:12.229Z,4.30
2022-08-08T00:11:46.704Z,5.00
2022-08-08T00:14:56.833Z,4.22
2022-08-08T00:18:01.610Z,6.80
2022-08-08T00:20:37.418Z,4.80
2022-08-08T00:23:08.173Z,4.75
2022-08-08T00:25:46.228Z,6.53
2022-08-08T00:28:35.955Z,6.63
2022-08-08T00:32:21.406Z,5.20
2022-08-08T00:34:20.056Z,4.75
2022-08-08T00:36:54.773Z,5.47
2022-08-08T00:41:07.077Z,5.07
2022-08-08T00:42:42.099Z,4.75
2022-08-08T00:45:42.598Z,4.20
2022-08-08T00:48:33.800Z,4.43
2022-08-08T00:51:38.294Z,4.57
2022-08-08T00:54:55.068Z,3.95
2022-08-08T00:58:13.871Z,5.03
2022-08-08T01:00:50.581Z,4.70
2022-08-08T01:04:02.672Z,4.85
2022-08-08T01:07:10.682Z,4.35
2022-08-08T01:10:26.366Z,4.63
2022-08-08T01:13:14.979Z,5.07
2022-08-08T01:16:00.241Z,4.35
2022-08-08T01:19:13.509Z,4.78
2022-08-08T01:22:23.618Z,4.57
2022-08-08T01:25:40.811Z,5.45
2022-08-08T01:28:28.169Z,5.20
2022-08-08T01:32:05.201Z,5.22
2022-08-08T01:34:44.874Z,5.03
2022-08-08T01:37:59.059Z,5.03
2022-08-08T01:40:29.361Z,4.63
2022-08-08T01:43:05.034Z,4.60
2022-08-08T01:45:56.071Z,5.20
2022-08-08T01:48:36.362Z,5.60
2022-08-08T01:51:30.060Z,5.03
2022-08-08T01:55:45.100Z,4.53
2022-08-08T01:57:17.300Z,5.00
2022-08-08T02:00:12.901Z,4.97
2022-08-08T02:02:57.282Z,7.05
2022-08-08T02:05:55.534Z,4.78
2022-08-08T02:08:33.899Z,5.00
2022-08-08T02:11:07.290Z,5.35
2022-08-08T02:13:56.123Z,5.13
2022-08-08T02:16:28.497Z,4.68
2022-08-08T02:19:09.968Z,5.85
2022-08-08T02:22:13.581Z,5.13
2022-08-08T02:24:51.728Z,4.63
2022-08-08T02:27:20.610Z,5.75
2022-08-08T02:30:04.369Z,4.68
2022-08-08T02:32:46.741Z,5.22
2022-08-08T02:36:03.374Z,5.53
2022-08-08T02:38:55.281Z,5.53
2022-08-08T02:42:04.661Z,5.93
2022-08-08T02:45:18.557Z,5.15
2022-08-08T02:48:25.743Z,4.78
2022-08-08T02:51:55.482Z,5.22
2022-08-08T02:55:04.517Z,5.93
2022-08-08T02:58:10.270Z,6.13
2022-08-08T03:01:14.899Z,5.47
2022-08-08T03:05:03.068Z,6.70
2022-08-08T03:08:01.638Z,5.43
2022-08-08T03:10:53.811Z,6.00
2022-08-08T03:16:02.467Z,5.30
2022-08-08T03:16:38.893Z,5.55
2022-08-08T03:19:51.345Z,5.25
2022-08-08T03:22:48.113Z,5.03
2022-08-08T03:25:17.803Z,4.47
2022-08-08T03:27:57.043Z,4.93
2022-08-08T03:30:25.932Z,4.47
2022-08-08T03:33:56.042Z,4.70
2022-08-08T03:35:59.873Z,4.18
2022-08-08T03:38:57.987Z,4.97
2022-08-08T03:42:11.962Z,4.82
2022-08-08T03:44:06.315Z,6.03
2022-08-08T03:46:44.668Z,6.28
2022-08-08T03:49:58.078Z,6.93
2022-08-08T03:52:07.543Z,8.48
2022-08-08T03:55:02.145Z,8.63
2022-08-08T03:58:31.720Z,8.30
2022-08-08T04:00:21.957Z,8.70
2022-08-08T04:02:59.445Z,8.77
2022-08-08T04:05:29.351Z,9.50
2022-08-08T04:07:58.125Z,8.87
2022-08-08T04:10:32.345Z,9.13
2022-08-08T04:13:17.347Z,9.57
2022-08-08T04:15:54.725Z,8.43
2022-08-08T04:18:32.266Z,9.63
2022-08-08T04:21:00.107Z,9.55
2022-08-08T04:23:33.414Z,10.55
2022-08-08T04:26:16.694Z,9.48
2022-08-08T04:28:48.624Z,9.40
2022-08-08T04:31:30.707Z,9.57
2022-08-08T04:34:10.044Z,9.95
2022-08-08T04:36:37.973Z,9.10
2022-08-08T04:39:48.088Z,9.98
2022-08-08T04:41:53.613Z,10.38
2022-08-08T04:44:26.714Z,9.27
2022-08-08T04:46:55.151Z,9.75
2022-08-08T04:49:28.842Z,9.63
2022-08-08T04:52:13.477Z,9.50
2022-08-08T04:54:42.580Z,9.27
2022-08-08T04:57:10.543Z,9.85
2022-08-08T04:59:42.474Z,10.13
2022-08-08T05:02:13.755Z,9.57
2022-08-08T05:04:44.296Z,9.77
2022-08-08T05:07:14.821Z,9.43
2022-08-08T05:09:43.199Z,11.65
2022-08-08T05:12:20.667Z,9.93
2022-08-08T05:14:52.312Z,9.65
2022-08-08T05:17:21.030Z,9.65
2022-08-08T05:20:10.417Z,9.15
2022-08-08T05:22:37.076Z,9.75
2022-08-08T05:25:05.376Z,9.48
2022-08-08T05:27:41.064Z,9.48
2022-08-08T05:30:12.226Z,9.18
2022-08-08T05:32:40.562Z,8.48
2022-08-08T05:35:13.595Z,8.43
2022-08-08T05:37:53.224Z,8.20
2022-08-08T05:40:28.149Z,8.10
2022-08-08T05:43:02.130Z,8.35
2022-08-08T05:45:43.195Z,7.03
2022-08-08T05:48:28.324Z,9.38
2022-08-08T05:51:14.794Z,7.78
2022-08-08T05:54:25.841Z,9.17
2022-08-08T05:56:37.371Z,7.97
2022-08-08T05:59:12.513Z,9.18
2022-08-08T06:01:55.388Z,7.60
2022-08-08T06:04:27.133Z,7.07
2022-08-08T06:07:00.574Z,6.72
2022-08-08T06:10:00.532Z,7.97
2022-08-08T06:12:30.341Z,6.93
2022-08-08T06:14:59.443Z,7.03
2022-08-08T06:17:32.118Z,7.40
2022-08-08T06:20:16.622Z,6.85
2022-08-08T06:22:47.383Z,6.67
2022-08-08T06:25:18.147Z,6.55
2022-08-08T06:27:48.852Z,5.68
2022-08-08T06:30:20.334Z,6.18
2022-08-08T06:33:01.330Z,5.45
2022-08-08T06:36:08.192Z,6.72
2022-08-08T06:38:21.349Z,4.20
2022-08-08T06:40:59.218Z,5.80
2022-08-08T06:43:30.694Z,5.43
2022-08-08T06:46:02.784Z,6.63
2022-08-08T06:48:32.307Z,4.40
2022-08-08T06:52:36.528Z,4.90
2022-08-08T06:55:11.240Z,5.22
2022-08-08T06:57:54.879Z,4.28
2022-08-08T07:00:30.345Z,5.13
2022-08-08T07:03:01.538Z,4.82
2022-08-08T07:05:40.172Z,2.45
2022-08-08T07:08:16.429Z,4.22
2022-08-08T07:10:48.816Z,2.75
2022-08-08T07:13:18.703Z,3.67
2022-08-08T07:16:05.351Z,3.47
2022-08-08T07:18:43.889Z,3.05
2022-08-08T07:21:20.391Z,4.45
2022-08-08T07:24:00.907Z,3.65
2022-08-08T07:26:35.376Z,4.72
2022-08-08T07:29:05.904Z,2.90
2022-08-08T07:31:36.814Z,2.80
2022-08-08T07:34:09.237Z,3.47
2022-08-08T07:36:37.325Z,3.50
2022-08-08T07:39:13.378Z,6.20
2022-08-08T07:42:03.555Z,3.85
2022-08-08T07:44:36.954Z,2.50
2022-08-08T07:47:08.836Z,3.05
2022-08-08T07:49:39.922Z,2.83
2022-08-08T07:52:13.333Z,2.78
2022-08-08T07:54:58.811Z,2.45
2022-08-08T07:57:36.158Z,2.22
2022-08-08T08:00:13.468Z,2.00
2022-08-08T08:02:45.857Z,1.98
2022-08-08T08:05:19.823Z,3.00
2022-08-08T08:07:54.586Z,3.40
2022-08-08T08:10:30.390Z,4.00
2022-08-08T08:13:25.595Z,2.17
2022-08-08T08:16:12.443Z,3.33
2022-08-08T08:18:51.624Z,2.75
2022-08-08T08:21:20.623Z,3.55
2022-08-08T08:24:08.885Z,2.78
2022-08-08T08:26:39.787Z,2.03
2022-08-08T08:29:20.164Z,1.77
2022-08-08T08:31:57.877Z,5.68
2022-08-08T08:34:31.948Z,1.88
2022-08-08T08:37:07.592Z,2.38
2022-08-08T08:40:00.205Z,2.55
2022-08-08T08:42:31.947Z,2.88
2022-08-08T08:45:21.495Z,4.72
2022-08-08T08:47:54.321Z,2.47
2022-08-08T08:50:32.448Z,2.43
2022-08-08T08:53:04.734Z,2.73
2022-08-08T08:55:39.310Z,2.10
2022-08-08T08:58:09.918Z,3.15
2022-08-08T09:00:56.205Z,2.60
2022-08-08T09:03:45.932Z,3.03
2022-08-08T09:06:28.215Z,3.00
2022-08-08T09:09:04.888Z,2.73
2022-08-08T09:11:35.318Z,2.53
2022-08-08T09:14:17.703Z,1.70
2022-08-08T09:16:45.816Z,4.40
2022-08-08T09:19:29.136Z,1.43
2022-08-08T09:22:06.704Z,1.42
2022-08-08T09:24:35.689Z,1.15
2022-08-08T09:27:14.739Z,3.40
2022-08-08T09:29:52.869Z,2.70
2022-08-08T09:32:37.030Z,1.60
2022-08-08T09:35:08.600Z,1.88
2022-08-08T09:38:01.874Z,1.67
2022-08-08T09:40:46.428Z,1.13
2022-08-08T09:43:40.843Z,1.10
2022-08-08T09:46:25.576Z,0.90
2022-08-08T09:49:18.544Z,2.05
2022-08-08T09:52:07.127Z,2.90
2022-08-08T09:54:44.082Z,2.10
2022-08-08T09:57:16.520Z,0.82
2022-08-08T09:59:57.172Z,1.90
2022-08-08T10:02:37.366Z,2.10
2022-08-08T10:05:15.043Z,2.92
2022-08-08T10:07:59.987Z,1.23
2022-08-08T10:10:31.497Z,1.33
2022-08-08T10:13:13.865Z,1.70
2022-08-08T10:16:00.687Z,1.05
2022-08-08T10:18:33.564Z,1.83
2022-08-08T10:21:23.285Z,1.73
2022-08-08T10:23:58.348Z,2.13
2022-08-08T10:26:58.616Z,1.03
2022-08-08T10:29:24.974Z,1.13
2022-08-08T10:32:16.053Z,1.60
2022-08-08T10:34:57.158Z,1.77
2022-08-08T10:37:30.257Z,1.50
2022-08-08T10:39:59.713Z,1.45
2022-08-08T10:42:35.483Z,2.05
2022-08-08T10:45:09.252Z,0.70
2022-08-08T10:47:43.843Z,0.90
2022-08-08T10:50:17.412Z,1.07
2022-08-08T10:52:45.333Z,0.90
2022-08-08T10:55:39.791Z,1.38
2022-08-08T10:58:08.232Z,1.30
2022-08-08T11:00:52.383Z,1.85
2022-08-08T11:03:36.983Z,2.25
2022-08-08T11:06:17.336Z,2.80
2022-08-08T11:08:53.620Z,3.03
2022-08-08T11:11:59.748Z,1.92
2022-08-08T11:14:12.291Z,2.25
2022-08-08T11:16:46.856Z,1.05
2022-08-08T11:19:17.100Z,0.93
2022-08-08T11:21:56.299Z,1.23
2022-08-08T11:24:26.961Z,0.98
2022-08-08T11:26:57.878Z,0.73
2022-08-08T11:29:41.408Z,1.65
2022-08-08T11:32:16.461Z,1.88
2022-08-08T11:35:08.856Z,1.20
2022-08-08T11:38:35.227Z,1.35
2022-08-08T11:40:26.527Z,1.23
2022-08-08T11:42:55.761Z,1.83
2022-08-08T11:45:23.975Z,2.15
2022-08-08T11:48:02.566Z,1.03
2022-08-08T11:50:34.287Z,2.25
2022-08-08T11:53:06.022Z,0.82
2022-08-08T11:55:36.529Z,1.60
2022-08-08T11:58:15.047Z,1.17
2022-08-08T12:00:47.331Z,2.03
2022-08-08T12:03:20.889Z,1.92
2022-08-08T12:05:48.946Z,1.45
2022-08-08T12:08:18.976Z,2.00
2022-08-08T12:10:48.030Z,1.17
2022-08-08T12:13:17.453Z,1.43
2022-08-08T12:15:49.156Z,1.02
2022-08-08T12:18:21.358Z,3.13
2022-08-08T12:20:53.297Z,1.10
2022-08-08T12:23:44.059Z,1.30
2022-08-08T12:26:28.485Z,2.00
2022-08-08T12:29:21.448Z,1.08
2022-08-08T12:31:53.551Z,1.08
2022-08-08T12:34:37.425Z,1.30
2022-08-08T12:37:08.276Z,1.75
2022-08-08T12:40:01.973Z,1.38
2022-08-08T12:42:27.322Z,1.00
2022-08-08T12:45:54.973Z,1.27
2022-08-08T12:48:10.601Z,1.77
2022-08-08T12:50:49.391Z,4.03
2022-08-08T12:53:24.847Z,2.42
2022-08-08T12:56:19.449Z,2.40
2022-08-08T12:58:54.613Z,1.13
2022-08-08T13:01:34.960Z,1.20
2022-08-08T13:04:18.322Z,1.77
2022-08-08T13:07:05.301Z,0.77
2022-08-08T13:10:00.699Z,1.13
2022-08-08T13:12:29.867Z,1.60
2022-08-08T13:14:58.711Z,2.10
2022-08-08T13:18:08.298Z,0.70
2022-08-08T13:20:17.402Z,1.70
2022-08-08T13:22:46.123Z,2.00
2022-08-08T13:25:18.859Z,0.90
2022-08-08T13:27:54.555Z,1.13
2022-08-08T13:30:26.383Z,1.83
2022-08-08T13:32:56.503Z,1.30
2022-08-08T13:35:29.621Z,1.90
2022-08-08T13:38:12.944Z,1.83
2022-08-08T13:40:44.637Z,1.60
2022-08-08T13:43:16.027Z,1.52
2022-08-08T13:45:47.189Z,1.67
2022-08-08T13:48:16.968Z,1.55
2022-08-08T13:50:52.397Z,2.00
2022-08-08T13:53:34.186Z,1.67
2022-08-08T13:56:11.830Z,0.97
2022-08-08T13:58:57.407Z,1.10
2022-08-08T14:01:41.866Z,0.93
2022-08-08T14:04:22.384Z,1.90
2022-08-08T14:06:50.951Z,1.83
2022-08-08T14:09:29.570Z,1.80
2022-08-08T14:11:58.873Z,1.70
2022-08-08T14:14:37.705Z,1.98
2022-08-08T14:17:11.724Z,1.60
2022-08-08T14:19:57.839Z,0.88
2022-08-08T14:22:38.338Z,0.70
2022-08-08T14:25:15.363Z,1.20
2022-08-08T14:27:59.785Z,0.85
2022-08-08T14:30:34.830Z,0.80
2022-08-08T14:33:02.877Z,2.40
2022-08-08T14:35:41.652Z,2.25
2022-08-08T14:38:34.421Z,1.30
2022-08-08T14:40:59.917Z,4.03
2022-08-08T14:44:10.294Z,2.60
2022-08-08T14:46:22.319Z,1.77
2022-08-08T14:49:09.393Z,1.50
2022-08-08T14:51:53.193Z,0.70
2022-08-08T14:54:28.726Z,1.15
2022-08-08T14:56:58.414Z,2.00
2022-08-08T14:59:43.688Z,0.57
2022-08-08T15:02:14.088Z,1.65
2022-08-08T15:04:43.476Z,1.25
2022-08-08T15:07:24.239Z,1.92
2022-08-08T15:10:00.944Z,1.67
2022-08-08T15:12:28.662Z,1.80
2022-08-08T15:14:57.895Z,2.03
2022-08-08T15:17:25.893Z,1.00
2022-08-08T15:19:54.287Z,2.10
2022-08-08T15:22:23.752Z,0.80
2022-08-08T15:24:51.726Z,2.15
2022-08-08T15:27:57.841Z,2.22
2022-08-08T15:30:12.540Z,1.15
2022-08-08T15:32:44.950Z,1.30
2022-08-08T15:35:13.054Z,1.55
2022-08-08T15:37:44.040Z,1.02
2022-08-08T15:40:15.083Z,1.20
2022-08-08T15:42:47.583Z,1.30
2022-08-08T15:45:23.078Z,3.08
2022-08-08T15:48:15.130Z,2.22
2022-08-08T15:51:01.197Z,1.77
2022-08-08T15:53:33.247Z,1.50
2022-08-08T15:56:17.185Z,1.27
2022-08-08T15:58:50.232Z,2.50
2022-08-08T16:02:00.599Z,1.60
2022-08-08T16:04:29.693Z,1.40
2022-08-08T16:06:57.683Z,1.52
2022-08-08T16:13:03.639Z,2.97
2022-08-08T16:13:04.077Z,0.65
2022-08-08T16:15:04.983Z,1.33
2022-08-08T16:17:38.934Z,1.52
2022-08-08T16:20:22.038Z,3.40
2022-08-08T16:22:52.153Z,1.38
2022-08-08T16:25:20.334Z,0.63
2022-08-08T16:27:57.774Z,0.60
2022-08-08T16:30:36.472Z,0.90
2022-08-08T16:33:06.034Z,1.10
2022-08-08T16:35:37.141Z,0.83
2022-08-08T16:38:04.812Z,1.67
2022-08-08T16:40:38.128Z,1.77
2022-08-08T16:43:08.461Z,1.13
2022-08-08T16:46:44.743Z,2.22
2022-08-08T16:48:26.416Z,1.00
2022-08-08T16:51:02.650Z,1.40
2022-08-08T16:55:18.389Z,0.90
2022-08-08T16:56:18.507Z,2.22
2022-08-08T16:58:49.959Z,1.35
2022-08-08T17:01:17.803Z,1.65
2022-08-08T17:03:59.505Z,2.70
2022-08-08T17:06:37.305Z,1.33
2022-08-08T17:09:14.874Z,2.35
2022-08-08T17:11:48.764Z,1.37
2022-08-08T17:14:27.517Z,1.00
2022-08-08T17:17:03.073Z,1.60
2022-08-08T17:19:40.837Z,1.70
2022-08-08T17:22:10.008Z,1.33
2022-08-08T17:24:37.737Z,3.00
2022-08-08T17:27:07.517Z,2.55
2022-08-08T17:29:36.256Z,2.22
2022-08-08T17:32:05.904Z,1.30
2022-08-08T17:34:59.731Z,1.77
2022-08-08T17:37:27.815Z,1.63
2022-08-08T17:40:10.477Z,2.95
2022-08-08T17:42:47.205Z,1.92
2022-08-08T17:45:23.572Z,1.38
2022-08-08T17:47:52.293Z,1.45
2022-08-08T17:50:24.681Z,0.77
2022-08-08T17:52:53.394Z,1.20
2022-08-08T17:56:05.013Z,1.83
2022-08-08T17:58:12.319Z,1.95
2022-08-08T18:00:41.508Z,2.40
2022-08-08T18:03:13.121Z,2.13
2022-08-08T18:05:44.091Z,1.98
2022-08-08T18:08:37.813Z,2.90
2022-08-08T18:11:11.554Z,3.15
2022-08-08T18:13:42.699Z,1.23
2022-08-08T18:16:11.410Z,1.30
2022-08-08T18:18:42.689Z,1.00
2022-08-08T18:21:25.150Z,0.70
2022-08-08T18:24:03.442Z,2.17
2022-08-08T18:26:31.248Z,1.20
2022-08-08T18:29:01.675Z,1.80
2022-08-08T18:31:29.509Z,1.50
2022-08-08T18:34:12.331Z,1.00
2022-08-08T18:36:47.644Z,0.75
2022-08-08T18:39:16.615Z,0.88
2022-08-08T18:42:02.827Z,1.25
2022-08-08T18:44:33.016Z,1.30
2022-08-08T18:47:05.137Z,1.88
2022-08-08T18:49:41.019Z,2.30
2022-08-08T18:52:26.200Z,1.80
2022-08-08T18:55:00.953Z,2.08
2022-08-08T18:57:42.075Z,1.20
2022-08-08T19:00:16.802Z,2.40
2022-08-08T19:02:56.715Z,1.80
2022-08-08T19:05:31.965Z,1.70
2022-08-08T19:08:09.518Z,4.80
2022-08-08T19:10:37.467Z,2.30
2022-08-08T19:13:20.734Z,2.03
2022-08-08T19:15:51.889Z,3.60
2022-08-08T19:18:30.733Z,2.55
2022-08-08T19:21:01.441Z,1.15
2022-08-08T19:23:30.486Z,1.60
2022-08-08T19:26:29.701Z,1.10
2022-08-08T19:28:50.855Z,1.40
2022-08-08T19:31:19.862Z,3.35
2022-08-08T19:34:04.394Z,3.23
2022-08-08T19:36:40.035Z,1.63
2022-08-08T19:39:14.630Z,2.78
2022-08-08T19:41:42.841Z,1.63
2022-08-08T19:44:12.876Z,1.98
2022-08-08T19:46:54.204Z,1.45
2022-08-08T19:49:24.443Z,1.50
2022-08-08T19:51:53.910Z,5.22
2022-08-08T19:54:23.022Z,4.50
2022-08-08T19:56:50.683Z,2.03
2022-08-08T19:59:22.568Z,2.30
2022-08-08T20:02:03.052Z,3.42
2022-08-08T20:04:31.923Z,1.80
2022-08-08T20:07:05.407Z,2.30
2022-08-08T20:09:55.767Z,2.23
2022-08-08T20:12:32.957Z,3.58
2022-08-08T20:15:14.561Z,1.90
2022-08-08T20:17:46.266Z,1.80
2022-08-08T20:20:19.125Z,2.85
2022-08-08T20:22:49.003Z,1.30
2022-08-08T20:25:24.745Z,2.53
2022-08-08T20:27:57.795Z,2.25
2022-08-08T20:30:52.780Z,1.98
2022-08-08T20:35:58.108Z,3.13
2022-08-08T20:38:29.256Z,3.22
2022-08-08T20:41:05.693Z,1.88
2022-08-08T20:43:48.357Z,2.60
2022-08-08T20:46:20.252Z,2.38
2022-08-08T20:48:49.084Z,2.22
2022-08-08T20:51:17.613Z,1.40
2022-08-08T20:54:00.657Z,1.73
2022-08-08T20:56:35.699Z,2.53
2022-08-08T20:59:24.745Z,1.75
2022-08-08T21:02:07.062Z,3.20
2022-08-08T21:04:37.165Z,1.67
2022-08-08T21:07:08.258Z,3.13
2022-08-08T21:10:01.354Z,2.15
2022-08-08T21:12:33.077Z,2.90
2022-08-08T21:15:07.096Z,4.30
2022-08-08T21:17:35.699Z,2.83
2022-08-08T21:20:05.514Z,3.22
2022-08-08T21:22:33.210Z,2.38
2022-08-08T21:25:02.656Z,2.20
2022-08-08T21:28:06.581Z,3.70
2022-08-08T21:30:24.693Z,3.00
2022-08-08T21:32:53.384Z,2.70
2022-08-08T21:36:14.715Z,3.23
2022-08-08T21:38:16.794Z,1.92
2022-08-08T21:40:56.491Z,2.60
2022-08-08T21:43:33.009Z,2.50
2022-08-08T21:48:08.145Z,2.42
2022-08-08T21:48:51.946Z,3.13
2022-08-08T21:54:18.297Z,2.60
2022-08-08T21:54:33.711Z,2.10
2022-08-08T21:56:59.259Z,1.58
2022-08-08T22:00:01.512Z,1.88
2022-08-08T22:02:22.801Z,1.95
2022-08-08T22:04:52.173Z,1.85
2022-08-08T22:07:19.975Z,3.65
2022-08-08T22:09:54.968Z,3.35
2022-08-08T22:12:22.704Z,5.45
2022-08-08T22:14:54.370Z,4.97
2022-08-08T22:17:22.072Z,2.55
2022-08-08T22:20:12.555Z,3.92
2022-08-08T22:22:38.732Z,5.75
2022-08-08T22:25:24.371Z,2.75
2022-08-08T22:28:02.860Z,4.30
2022-08-08T22:30:34.282Z,3.03
2022-08-08T22:33:02.643Z,3.90
2022-08-08T22:36:05.157Z,2.45
2022-08-08T22:38:24.709Z,3.33
2022-08-08T22:40:52.347Z,2.20
2022-08-08T22:43:20.132Z,3.47
2022-08-08T22:45:52.535Z,2.83
2022-08-08T22:48:21.549Z,3.33
2022-08-08T22:50:50.149Z,1.70
2022-08-08T22:54:29.622Z,2.37
2022-08-08T22:56:07.116Z,4.68
2022-08-08T22:58:35.276Z,4.07
2022-08-08T23:01:33.698Z,2.57
2022-08-08T23:03:56.832Z,2.75
2022-08-08T23:06:25.075Z,3.25
2022-08-08T23:08:58.077Z,1.88
2022-08-08T23:11:58.030Z,2.78
2022-08-08T23:14:17.175Z,3.63
2022-08-08T23:16:53.324Z,3.42
2022-08-08T23:19:27.072Z,2.50
2022-08-08T23:21:54.959Z,2.40
2022-08-08T23:24:23.695Z,3.60
2022-08-08T23:26:53.383Z,2.72
2022-08-08T23:29:24.107Z,3.37
2022-08-08T23:31:53.163Z,2.30
2022-08-08T23:34:21.927Z,3.00
2022-08-08T23:36:56.545Z,3.15
2022-08-08T23:39:26.572Z,3.10
2022-08-08T23:42:00.690Z,2.50
2022-08-08T23:44:30.042Z,2.88
2022-08-08T23:49:06.569Z,4.40
2022-08-08T23:50:02.754Z,2.55
2022-08-08T23:52:31.180Z,3.47
2022-08-08T23:55:07.259Z,4.05
2022-08-08T23:57:52.087Z,2.58
